Time;durP1;ratioP1;P1;durP2;ratioP2;P2;SDS_P1;SDS_P2;PMS_P1;PMS_P2;Temp;Humidity;BMP_temperature;BMP_pressure;BME280_temperature;BME280_humidity;BME280_pressure;Samples;Min_cycle;Max_cycle;Signal;HPM_P1;HPM_P2
2022/09/26 00:01:28;;;;;;;5.07;1.98;;;12.20;99.90;;;;;;6177534;23;20006;-89
2022/09/26 00:03:57;;;;;;;3.13;1.33;;;12.20;99.90;;;;;;6177233;23;20072;-90
2022/09/26 00:06:23;;;;;;;4.15;1.60;;;12.30;99.90;;;;;;6176602;23;20032;-89
2022/09/26 00:08:49;;;;;;;4.75;1.60;;;12.30;99.90;;;;;;6177002;23;20058;-89
2022/09/26 00:11:18;;;;;;;7.32;1.95;;;12.30;99.90;;;;;;6176977;23;20413;-89
2022/09/26 00:13:45;;;;;;;3.33;1.10;;;12.40;99.90;;;;;;6177121;23;19997;-88
2022/09/26 00:16:11;;;;;;;4.60;1.40;;;12.30;99.90;;;;;;6175294;22;20004;-89
2022/09/26 00:18:38;;;;;;;10.77;2.17;;;12.40;99.90;;;;;;6178130;23;20456;-87
2022/09/26 00:21:07;;;;;;;3.33;1.30;;;12.40;99.90;;;;;;6175779;23;20076;-88
2022/09/26 00:23:32;;;;;;;3.63;1.15;;;12.30;99.90;;;;;;6177788;22;20005;-87
2022/09/26 00:25:58;;;;;;;6.28;1.38;;;12.40;99.90;;;;;;6175584;23;20012;-89
2022/09/26 00:28:24;;;;;;;2.60;1.42;;;12.30;99.90;;;;;;6177161;23;20008;-90
2022/09/26 00:30:50;;;;;;;4.80;1.30;;;12.40;99.90;;;;;;6175219;23;20012;-90
2022/09/26 00:33:16;;;;;;;12.13;1.70;;;12.40;99.90;;;;;;6177088;23;20001;-87
2022/09/26 00:35:50;;;;;;;3.58;1.40;;;12.40;99.90;;;;;;6176255;23;20009;-87
2022/09/26 00:38:15;;;;;;;3.03;1.25;;;12.40;99.90;;;;;;6176767;23;20036;-88
2022/09/26 00:40:41;;;;;;;2.58;1.30;;;12.30;99.90;;;;;;6175702;23;20001;-87
2022/09/26 00:43:30;;;;;;;3.40;1.17;;;12.30;99.90;;;;;;6177053;22;20003;-85
2022/09/26 00:46:01;;;;;;;5.80;1.63;;;12.20;99.90;;;;;;6180941;23;20059;-89
2022/09/26 00:48:28;;;;;;;13.50;1.60;;;12.20;99.90;;;;;;6176873;23;20005;-87
2022/09/26 00:50:54;;;;;;;7.95;1.70;;;12.10;99.90;;;;;;6177411;22;20009;-88
2022/09/26 00:53:26;;;;;;;3.15;1.52;;;12.10;99.90;;;;;;6176800;23;20426;-88
2022/09/26 00:55:56;;;;;;;3.30;1.35;;;12.10;99.90;;;;;;6176228;23;20054;-89
2022/09/26 00:58:36;;;;;;;8.18;1.42;;;12.00;99.90;;;;;;6176636;23;20119;-87
2022/09/26 01:01:01;;;;;;;4.15;1.00;;;12.00;99.90;;;;;;6176008;23;20277;-88
2022/09/26 01:03:30;;;;;;;3.25;1.23;;;11.90;99.90;;;;;;6176155;23;20359;-87
2022/09/26 01:05:56;;;;;;;9.75;1.55;;;11.90;99.90;;;;;;6176588;23;20001;-87
2022/09/26 01:08:41;;;;;;;13.90;1.80;;;11.90;99.90;;;;;;6176293;23;20025;-87
2022/09/26 01:11:08;;;;;;;4.13;1.48;;;11.90;99.90;;;;;;6174755;23;20005;-88
2022/09/26 01:13:38;;;;;;;12.95;1.70;;;11.80;99.90;;;;;;6178084;22;20072;-88
2022/09/26 01:16:03;;;;;;;11.30;1.67;;;11.70;99.90;;;;;;6176025;23;20040;-88
2022/09/26 01:18:35;;;;;;;7.65;1.55;;;11.70;99.90;;;;;;6176319;23;20350;-87
2022/09/26 01:21:21;;;;;;;4.63;1.25;;;11.70;99.90;;;;;;6175224;23;20009;-87
2022/09/26 01:23:53;;;;;;;;;;;11.70;99.90;;;;;;6177856;23;20430;-89
2022/09/26 01:26:52;;;;;;;2.58;1.10;;;11.60;99.90;;;;;;6175858;23;20029;-88
2022/09/26 01:29:17;;;;;;;10.13;1.73;;;11.60;99.90;;;;;;6176409;22;20355;-88
2022/09/26 01:35:03;;;;;;;8.70;1.60;;;11.60;99.90;;;;;;6176875;23;20111;-87
2022/09/26 01:38:02;;;;;;;7.20;1.38;;;11.60;99.90;;;;;;6176772;23;20331;-88
2022/09/26 01:40:53;;;;;;;6.93;1.35;;;11.60;99.90;;;;;;6175434;23;20037;-88
2022/09/26 01:43:38;;;;;;;5.03;0.93;;;11.60;99.90;;;;;;6176522;23;20005;-87
2022/09/26 01:46:23;;;;;;;7.00;1.13;;;11.60;99.90;;;;;;6175991;23;20005;-86
2022/09/26 01:49:00;;;;;;;7.00;1.73;;;11.60;99.90;;;;;;6176752;23;20431;-88
2022/09/26 01:51:46;;;;;;;12.35;1.88;;;11.60;99.90;;;;;;6176201;23;20076;-86
2022/09/26 01:54:20;;;;;;;14.73;1.90;;;11.50;99.90;;;;;;6176330;23;20466;-86
2022/09/26 01:56:49;;;;;;;10.48;1.70;;;11.50;99.90;;;;;;6176326;23;20024;-87
2022/09/26 01:59:39;;;;;;;9.18;1.85;;;11.50;99.90;;;;;;6175874;23;20017;-85
2022/09/26 02:02:18;;;;;;;4.20;1.58;;;11.50;99.90;;;;;;6176020;23;20430;-86
2022/09/26 02:04:51;;;;;;;6.78;1.77;;;11.50;99.90;;;;;;6175769;22;20492;-86
2022/09/26 02:07:30;;;;;;;5.45;1.60;;;11.50;99.90;;;;;;6176232;23;20021;-83
2022/09/26 02:10:02;;;;;;;4.38;1.35;;;11.50;99.90;;;;;;6177622;22;20036;-87
2022/09/26 02:12:34;;;;;;;4.47;1.40;;;11.50;99.90;;;;;;6177069;22;20005;-85
2022/09/26 02:15:05;;;;;;;14.60;2.05;;;11.50;99.90;;;;;;6176132;23;20025;-88
2022/09/26 02:17:41;;;;;;;3.20;1.30;;;11.50;99.90;;;;;;6176297;22;20426;-85
2022/09/26 02:20:18;;;;;;;15.25;1.77;;;11.40;99.90;;;;;;6173683;23;20013;-87
2022/09/26 02:22:44;;;;;;;9.27;1.85;;;11.40;99.90;;;;;;6175257;22;20442;-89
2022/09/26 02:25:10;;;;;;;3.50;1.30;;;11.40;99.90;;;;;;6176157;23;20009;-88
2022/09/26 02:27:39;;;;;;;9.13;2.47;;;11.30;99.90;;;;;;6176891;23;20446;-87
2022/09/26 02:30:05;;;;;;;0.98;0.88;;;11.30;99.90;;;;;;6176368;23;20171;-88
2022/09/26 02:32:41;;;;;;;4.07;1.08;;;11.30;99.90;;;;;;6177005;22;20163;-88
2022/09/26 02:37:53;;;;;;;5.47;1.75;;;11.20;99.90;;;;;;6175165;23;20017;-87
2022/09/26 02:40:26;;;;;;;6.35;1.20;;;11.20;99.90;;;;;;6177054;23;20040;-91
2022/09/26 02:43:05;;;;;;;3.90;1.33;;;11.20;99.90;;;;;;6175842;23;20092;-87
2022/09/26 02:45:46;;;;;;;12.70;1.80;;;11.10;99.90;;;;;;6176123;23;20001;-87
2022/09/26 02:48:37;;;;;;;8.27;1.63;;;11.10;99.90;;;;;;6175886;23;20017;-87
2022/09/26 02:51:32;;;;;;;8.88;2.95;;;11.00;99.90;;;;;;6180219;22;20026;-88
2022/09/26 02:54:03;;;;;;;9.32;1.95;;;11.00;99.90;;;;;;6176678;23;20076;-86
2022/09/26 02:56:39;;;;;;;4.30;1.35;;;11.00;99.90;;;;;;6174851;23;20001;-87
2022/09/26 02:59:08;;;;;;;1.92;1.00;;;11.00;99.90;;;;;;6174988;23;20017;-87
2022/09/26 03:01:47;;;;;;;6.32;1.35;;;11.10;99.90;;;;;;6177308;22;20024;-87
2022/09/26 03:04:19;;;;;;;7.60;1.73;;;11.00;99.90;;;;;;6177388;22;20040;-88
2022/09/26 03:06:49;;;;;;;4.63;1.15;;;11.10;99.90;;;;;;6176441;23;19997;-88
2022/09/26 03:09:17;;;;;;;4.80;1.02;;;11.10;99.90;;;;;;6177175;23;20240;-88
2022/09/26 03:11:44;;;;;;;2.42;1.00;;;11.10;99.90;;;;;;6174653;23;20009;-89
2022/09/26 03:14:11;;;;;;;4.53;1.40;;;11.10;99.90;;;;;;6176257;22;20012;-85
2022/09/26 03:16:40;;;;;;;5.30;1.42;;;11.20;99.90;;;;;;6176512;23;20000;-87
2022/09/26 03:19:12;;;;;;;4.97;1.30;;;11.20;99.90;;;;;;6174866;23;20014;-87
2022/09/26 03:21:38;;;;;;;5.43;1.30;;;11.20;99.90;;;;;;6175788;23;20426;-89
2022/09/26 03:24:04;;;;;;;2.17;0.90;;;11.20;99.90;;;;;;6177653;23;20066;-88
2022/09/26 03:26:31;;;;;;;3.67;1.60;;;11.10;99.90;;;;;;6175808;23;20001;-85
2022/09/26 03:28:57;;;;;;;3.85;1.13;;;11.10;99.90;;;;;;6175975;23;20005;-87
2022/09/26 03:31:24;;;;;;;5.18;0.90;;;11.10;99.90;;;;;;6174971;23;20016;-85
2022/09/26 03:33:50;;;;;;;2.92;1.00;;;11.10;99.90;;;;;;6176445;22;20056;-87
2022/09/26 03:36:17;;;;;;;4.10;1.23;;;11.20;99.90;;;;;;6175485;23;20013;-89
2022/09/26 03:38:42;;;;;;;1.00;0.73;;;11.20;99.90;;;;;;6174258;22;20092;-86
2022/09/26 03:41:08;;;;;;;9.15;1.50;;;11.20;99.90;;;;;;6175150;23;20025;-85
2022/09/26 03:43:38;;;;;;;4.80;1.23;;;11.20;99.90;;;;;;6176890;23;20001;-87
2022/09/26 03:46:05;;;;;;;4.95;1.02;;;11.20;99.90;;;;;;6176184;23;20015;-88
2022/09/26 03:48:32;;;;;;;8.10;1.20;;;11.10;99.90;;;;;;6176318;23;20343;-86
2022/09/26 03:51:06;;;;;;;2.33;1.08;;;11.10;99.90;;;;;;6174329;22;20259;-86
2022/09/26 03:53:33;;;;;;;3.45;1.08;;;11.10;99.90;;;;;;6174578;23;20005;-88
2022/09/26 03:56:14;;;;;;;5.15;1.10;;;11.20;99.90;;;;;;6174142;23;20025;-88
2022/09/26 03:58:43;;;;;;;8.23;1.13;;;11.10;99.90;;;;;;6174149;22;20223;-86
2022/09/26 04:01:12;;;;;;;9.20;1.33;;;11.20;99.90;;;;;;6174956;23;20001;-88
2022/09/26 04:03:43;;;;;;;5.63;1.67;;;11.10;99.90;;;;;;6176851;23;20008;-86
2022/09/26 04:06:09;;;;;;;2.97;1.40;;;11.10;99.90;;;;;;6176457;23;20005;-87
2022/09/26 04:08:37;;;;;;;5.18;1.00;;;11.10;99.90;;;;;;6176023;23;20017;-86
2022/09/26 04:11:08;;;;;;;6.40;1.50;;;11.10;99.90;;;;;;6173082;22;20005;-86
2022/09/26 04:13:37;;;;;;;4.63;1.20;;;11.10;99.90;;;;;;6177911;23;20005;-85
2022/09/26 04:16:04;;;;;;;2.92;1.20;;;11.10;99.90;;;;;;6178120;22;20005;-86
2022/09/26 04:18:31;;;;;;;6.75;1.60;;;11.10;99.90;;;;;;6176993;22;20058;-88
2022/09/26 04:21:00;;;;;;;6.80;1.65;;;11.10;99.90;;;;;;6176968;23;20020;-88
2022/09/26 04:23:28;;;;;;;6.13;1.08;;;11.10;99.90;;;;;;6175532;23;20326;-86
2022/09/26 04:25:54;;;;;;;1.00;0.80;;;11.10;99.90;;;;;;6175827;23;20163;-87
2022/09/26 04:28:20;;;;;;;7.95;1.70;;;11.10;99.90;;;;;;6178226;23;20043;-86
2022/09/26 04:30:45;;;;;;;8.65;1.83;;;11.20;99.90;;;;;;6175456;23;20012;-85
2022/09/26 04:33:11;;;;;;;5.53;1.38;;;11.10;99.90;;;;;;6178531;23;20033;-87
2022/09/26 04:35:37;;;;;;;3.35;1.20;;;11.20;99.90;;;;;;6173175;23;20005;-83
2022/09/26 04:38:03;;;;;;;5.45;1.30;;;11.20;99.90;;;;;;6178793;23;20448;-85
2022/09/26 04:40:31;;;;;;;4.63;1.17;;;11.20;99.90;;;;;;6176650;22;20050;-89
2022/09/26 04:42:57;;;;;;;3.97;1.13;;;11.20;99.90;;;;;;6169493;23;20012;-85
2022/09/26 04:45:23;;;;;;;5.63;1.17;;;11.30;99.90;;;;;;6174545;23;20111;-86
2022/09/26 04:47:49;;;;;;;2.15;1.20;;;11.30;99.90;;;;;;6173845;23;20029;-85
2022/09/26 04:50:15;;;;;;;2.22;1.27;;;11.30;99.90;;;;;;6175866;23;20012;-85
2022/09/26 04:52:46;;;;;;;5.82;1.40;;;11.40;99.90;;;;;;6175940;23;20005;-86
2022/09/26 04:55:12;;;;;;;8.23;1.67;;;11.30;99.90;;;;;;6175204;23;20018;-86
2022/09/26 04:57:40;;;;;;;6.78;1.85;;;11.30;99.90;;;;;;6175989;23;20453;-85
2022/09/26 05:00:07;;;;;;;5.38;1.77;;;11.30;99.90;;;;;;6177267;23;20013;-87
2022/09/26 05:02:32;;;;;;;7.07;1.38;;;11.30;99.90;;;;;;6176907;22;20421;-87
2022/09/26 05:04:58;;;;;;;5.82;1.35;;;11.30;99.90;;;;;;6177874;23;20001;-90
2022/09/26 05:07:26;;;;;;;10.55;1.85;;;11.30;99.90;;;;;;6175102;23;20322;-89
2022/09/26 05:09:52;;;;;;;5.95;2.03;;;11.30;99.90;;;;;;6177702;22;20010;-86
2022/09/26 05:12:18;;;;;;;16.92;1.83;;;11.30;99.90;;;;;;6177340;23;20012;-90
2022/09/26 05:14:46;;;;;;;11.77;1.65;;;11.30;99.90;;;;;;6178245;22;20001;-87
2022/09/26 05:17:12;;;;;;;6.30;1.35;;;11.30;99.90;;;;;;6176245;23;20033;-88
2022/09/26 05:19:37;;;;;;;7.85;1.33;;;11.40;99.90;;;;;;6177544;23;20330;-88
2022/09/26 05:22:03;;;;;;;3.75;1.13;;;11.40;99.90;;;;;;6176313;23;20001;-88
2022/09/26 05:27:14;;;;;;;4.85;1.48;;;11.40;99.90;;;;;;6175768;23;20453;-89
2022/09/26 05:29:39;;;;;;;6.88;1.33;;;11.40;99.90;;;;;;6177721;23;20005;-89
2022/09/26 05:32:05;;;;;;;3.92;1.40;;;11.40;99.90;;;;;;6176524;23;19993;-88
2022/09/26 05:34:30;;;;;;;4.55;1.33;;;11.40;99.90;;;;;;6177632;23;20074;-86
2022/09/26 05:36:56;;;;;;;8.52;1.70;;;11.40;99.90;;;;;;6174799;23;20005;-88
2022/09/26 05:42:07;;;;;;;6.40;1.48;;;11.40;99.90;;;;;;6175785;23;20065;-86
2022/09/26 05:44:32;;;;;;;4.80;1.17;;;11.40;99.90;;;;;;6176610;22;20008;-87
2022/09/26 05:46:58;;;;;;;3.85;1.10;;;11.40;99.90;;;;;;6176505;23;20385;-87
2022/09/26 05:49:24;;;;;;;10.57;1.40;;;11.50;99.90;;;;;;6176612;23;20399;-86
2022/09/26 05:51:52;;;;;;;9.68;1.25;;;11.40;99.90;;;;;;6175631;23;20016;-88
2022/09/26 05:54:17;;;;;;;8.93;1.33;;;11.40;99.90;;;;;;6177020;22;20040;-86
2022/09/26 05:56:43;;;;;;;4.20;1.33;;;11.40;99.90;;;;;;6175121;23;20354;-88
2022/09/26 05:59:08;;;;;;;7.65;1.58;;;11.30;99.90;;;;;;6176130;23;20026;-86
2022/09/26 06:01:34;;;;;;;6.05;1.80;;;11.30;99.90;;;;;;6177698;23;20013;-87
2022/09/26 06:04:01;;;;;;;12.73;1.63;;;11.30;99.90;;;;;;6177423;23;20005;-90
2022/09/26 06:06:28;;;;;;;6.90;1.58;;;11.30;99.90;;;;;;6177492;22;20004;-87
2022/09/26 06:08:54;;;;;;;10.77;2.30;;;11.30;99.90;;;;;;6177066;23;20021;-87
2022/09/26 06:11:23;;;;;;;12.27;2.22;;;11.30;99.90;;;;;;6176969;23;20035;-85
2022/09/26 06:13:48;;;;;;;6.50;2.08;;;11.30;99.90;;;;;;6177257;22;20304;-87
2022/09/26 06:16:19;;;;;;;9.15;2.53;;;11.30;99.90;;;;;;6175368;23;20007;-85
2022/09/26 06:18:49;;;;;;;8.13;1.70;;;11.30;99.90;;;;;;6177027;23;20036;-85
2022/09/26 06:21:17;;;;;;;9.88;2.00;;;11.30;99.90;;;;;;6175536;23;20004;-89
2022/09/26 06:23:49;;;;;;;6.38;1.60;;;11.30;99.90;;;;;;6176257;23;20317;-84
2022/09/26 06:26:23;;;;;;;7.22;2.05;;;11.40;99.90;;;;;;6175974;23;20452;-86
2022/09/26 06:28:54;;;;;;;7.35;1.92;;;11.40;99.90;;;;;;6177086;23;20008;-85
2022/09/26 06:31:21;;;;;;;5.57;1.60;;;11.40;99.90;;;;;;6176577;23;20001;-89
2022/09/26 06:33:52;;;;;;;7.53;2.08;;;11.50;99.90;;;;;;6177728;23;20446;-86
2022/09/26 06:36:17;;;;;;;7.72;2.00;;;11.40;99.90;;;;;;6177022;22;20457;-89
2022/09/26 06:38:46;;;;;;;10.02;1.83;;;11.40;99.90;;;;;;6177688;23;20013;-88
2022/09/26 06:41:13;;;;;;;10.75;2.80;;;11.50;99.90;;;;;;6177038;22;20012;-88
2022/09/26 06:43:39;;;;;;;11.02;3.17;;;11.50;99.90;;;;;;6177386;23;20327;-87
2022/09/26 06:46:09;;;;;;;10.48;2.67;;;11.40;99.90;;;;;;6176925;23;20175;-90
2022/09/26 06:48:35;;;;;;;12.13;3.30;;;11.40;99.90;;;;;;6177511;23;20001;-88
2022/09/26 06:51:00;;;;;;;8.43;3.42;;;11.50;99.90;;;;;;6176672;23;20446;-88
2022/09/26 06:53:27;;;;;;;10.55;5.78;;;11.50;99.90;;;;;;6177623;23;20005;-87
2022/09/26 06:55:53;;;;;;;4.57;1.67;;;11.50;99.90;;;;;;6177281;23;20184;-88
2022/09/26 06:58:19;;;;;;;7.43;2.42;;;11.50;99.90;;;;;;6176480;23;20468;-86
2022/09/26 07:00:47;;;;;;;5.78;3.58;;;11.50;99.90;;;;;;6177400;23;20033;-88
2022/09/26 07:03:14;;;;;;;5.03;2.20;;;11.50;99.90;;;;;;6176363;23;20001;-87
2022/09/26 07:05:44;;;;;;;11.75;4.57;;;11.60;99.90;;;;;;6177521;23;19997;-87
2022/09/26 07:08:09;;;;;;;8.68;3.08;;;11.60;99.90;;;;;;6150245;22;20021;-89
2022/09/26 07:10:36;;;;;;;7.30;2.50;;;11.60;99.90;;;;;;6177465;23;20001;-86
2022/09/26 07:13:06;;;;;;;5.82;2.60;;;11.70;99.90;;;;;;6175615;23;20005;-88
2022/09/26 07:15:33;;;;;;;13.85;2.92;;;11.60;99.90;;;;;;6177482;22;20070;-88
2022/09/26 07:18:01;;;;;;;11.27;3.28;;;11.70;99.90;;;;;;6176107;23;20051;-86
2022/09/26 07:20:32;;;;;;;11.50;3.80;;;11.70;99.90;;;;;;6177485;22;20528;-88
2022/09/26 07:23:01;;;;;;;7.63;2.58;;;11.80;99.90;;;;;;6176592;22;19997;-90
2022/09/26 07:25:30;;;;;;;12.77;4.93;;;11.80;99.90;;;;;;6177320;23;20012;-87
2022/09/26 07:27:55;;;;;;;12.48;2.80;;;11.90;99.90;;;;;;6176674;22;20008;-86
2022/09/26 07:30:22;;;;;;;10.68;2.72;;;11.90;99.90;;;;;;6177539;23;20062;-82
2022/09/26 07:32:47;;;;;;;8.20;2.67;;;11.90;99.90;;;;;;6176854;23;20002;-89
2022/09/26 07:35:16;;;;;;;7.53;3.17;;;12.00;99.90;;;;;;6177097;23;20016;-88
2022/09/26 07:37:42;;;;;;;8.13;2.70;;;12.00;99.90;;;;;;6176448;22;20398;-88
2022/09/26 07:40:09;;;;;;;14.55;3.03;;;12.10;99.90;;;;;;6176895;23;20013;-89
2022/09/26 07:42:37;;;;;;;8.00;3.03;;;12.10;99.90;;;;;;6151707;22;20005;-85
2022/09/26 07:45:04;;;;;;;12.00;2.53;;;12.20;99.90;;;;;;6178764;22;20001;-90
2022/09/26 07:50:18;;;;;;;15.63;3.38;;;12.30;99.90;;;;;;6178737;23;20036;-88
2022/09/26 07:52:51;;;;;;;7.65;2.97;;;12.30;99.90;;;;;;6177484;23;20001;-89
2022/09/26 07:55:19;;;;;;;9.98;3.08;;;12.40;99.90;;;;;;6178955;23;20314;-89
2022/09/26 07:57:48;;;;;;;8.05;3.00;;;12.40;99.90;;;;;;6177306;23;20005;-85
2022/09/26 08:00:16;;;;;;;10.07;2.30;;;12.50;99.90;;;;;;6178282;23;20020;-89
2022/09/26 08:02:45;;;;;;;7.93;2.95;;;12.50;99.90;;;;;;6177705;23;20117;-88
2022/09/26 08:05:16;;;;;;;8.23;2.88;;;12.50;99.90;;;;;;6178724;22;20082;-88
2022/09/26 08:07:46;;;;;;;7.53;2.10;;;12.60;99.90;;;;;;6177105;23;20103;-92
2022/09/26 08:10:18;;;;;;;11.65;2.63;;;12.60;99.90;;;;;;6178491;23;20127;-88
2022/09/26 08:12:47;;;;;;;8.73;2.80;;;12.70;99.90;;;;;;6177616;22;20012;-84
2022/09/26 08:15:14;;;;;;;5.72;2.38;;;12.90;99.90;;;;;;6178380;23;19998;-88
2022/09/26 08:17:40;;;;;;;11.23;2.80;;;12.90;99.90;;;;;;6177685;23;20015;-90
2022/09/26 08:20:06;;;;;;;5.95;2.30;;;13.00;99.90;;;;;;6178678;23;20009;-85
2022/09/26 08:22:32;;;;;;;8.30;2.53;;;13.00;99.90;;;;;;6175478;23;20009;-90
2022/09/26 08:24:59;;;;;;;8.60;2.88;;;13.00;99.90;;;;;;6178467;23;19997;-87
2022/09/26 08:27:25;;;;;;;11.00;3.00;;;13.00;99.90;;;;;;6176934;23;20005;-87
2022/09/26 08:29:53;;;;;;;9.85;2.92;;;13.10;99.90;;;;;;6178013;23;20334;-87
2022/09/26 08:32:19;;;;;;;8.93;2.72;;;13.10;99.90;;;;;;6176164;23;20008;-89
2022/09/26 08:34:46;;;;;;;8.35;3.00;;;13.10;99.90;;;;;;6176435;23;19997;-88
2022/09/26 08:37:13;;;;;;;10.30;3.30;;;13.10;99.90;;;;;;6177051;22;20005;-88
2022/09/26 08:39:41;;;;;;;7.18;2.75;;;13.20;99.90;;;;;;6176433;23;20334;-86
2022/09/26 08:42:45;;;;;;;14.82;3.38;;;13.10;99.90;;;;;;6176427;23;20001;-88
2022/09/26 08:48:31;;;;;;;7.40;2.83;;;13.00;99.90;;;;;;6193689;23;20080;-90
2022/09/26 08:51:21;;;;;;;11.48;2.97;;;13.00;99.90;;;;;;6177867;22;20005;-88
2022/09/26 08:53:56;;;;;;;17.00;7.45;;;13.00;99.90;;;;;;6191280;23;20006;-90
2022/09/26 08:56:35;;;;;;;12.07;3.10;;;12.90;99.90;;;;;;6179122;22;20001;-83
2022/09/26 08:59:04;;;;;;;12.73;3.78;;;12.90;99.90;;;;;;6178781;23;20036;-91
2022/09/26 09:01:37;;;;;;;3.83;2.58;;;12.90;99.90;;;;;;6177169;23;20423;-92
2022/09/26 09:04:42;;;;;;;14.32;2.83;;;12.90;99.90;;;;;;6177797;22;19997;-89
2022/09/26 09:07:21;;;;;;;10.93;2.70;;;12.90;99.90;;;;;;6181662;23;20131;-90
2022/09/26 09:09:53;;;;;;;14.15;3.22;;;12.80;99.90;;;;;;6178407;23;20005;-90
2022/09/26 09:12:34;;;;;;;11.38;3.45;;;12.90;99.90;;;;;;6177492;22;20076;-87
2022/09/26 09:15:13;;;;;;;11.32;4.57;;;12.90;99.90;;;;;;6178349;23;20005;-90
2022/09/26 09:18:05;;;;;;;14.85;3.58;;;12.90;99.90;;;;;;6176985;22;20469;-88
2022/09/26 09:20:58;;;;;;;6.93;3.00;;;13.00;99.90;;;;;;6178197;22;20020;-88
2022/09/26 09:24:02;;;;;;;9.57;2.63;;;13.00;99.90;;;;;;6177181;23;20103;-91
2022/09/26 09:26:54;;;;;;;10.88;3.38;;;13.10;99.90;;;;;;6177594;23;20008;-82
2022/09/26 09:29:55;;;;;;;15.13;3.38;;;13.20;99.90;;;;;;6178203;22;20032;-88
2022/09/26 09:32:26;;;;;;;8.50;2.80;;;13.20;99.90;;;;;;6178441;22;20009;-87
2022/09/26 09:34:52;;;;;;;7.60;2.90;;;13.40;99.90;;;;;;6178316;23;20009;-86
2022/09/26 09:37:22;;;;;;;7.65;3.25;;;13.40;99.90;;;;;;6177045;23;19998;-89
2022/09/26 09:39:51;;;;;;;6.55;3.22;;;13.50;99.90;;;;;;6178181;23;20080;-89
2022/09/26 09:42:48;;;;;;;8.32;3.35;;;13.60;99.90;;;;;;6177868;23;20005;-91
2022/09/26 09:45:29;;;;;;;;;;;13.60;99.90;;;;;;6178995;23;20057;-91
2022/09/26 09:47:55;;;;;;;8.65;2.10;;;13.60;99.90;;;;;;6176111;23;19904;-91
2022/09/26 09:50:44;;;;;;;5.07;2.75;;;13.50;99.90;;;;;;6177950;23;20005;-86
2022/09/26 09:53:37;;;;;;;6.50;2.67;;;13.50;99.90;;;;;;6175896;23;20016;-86
2022/09/26 09:56:18;;;;;;;10.35;2.38;;;13.60;99.90;;;;;;6178534;23;19997;-90
2022/09/26 09:59:18;;;;;;;7.13;2.70;;;13.60;99.90;;;;;;6176886;23;20430;-87
2022/09/26 10:01:58;;;;;;;6.75;2.10;;;13.70;99.90;;;;;;6201694;23;20050;-88
2022/09/26 10:04:47;;;;;;;11.48;2.55;;;13.70;99.90;;;;;;6176014;23;20497;-89
2022/09/26 10:07:13;;;;;;;4.20;2.42;;;13.80;99.90;;;;;;6174055;23;20430;-89
2022/09/26 10:09:42;;;;;;;5.10;2.08;;;13.90;99.90;;;;;;6178247;23;20001;-87
2022/09/26 10:12:15;;;;;;;6.22;2.63;;;14.00;99.90;;;;;;6176143;22;20025;-86
2022/09/26 10:14:53;;;;;;;9.00;2.22;;;14.10;99.90;;;;;;6177989;22;20008;-88
2022/09/26 10:17:21;;;;;;;10.50;2.40;;;14.10;99.90;;;;;;6176024;23;20008;-88
2022/09/26 10:19:46;;;;;;;3.95;1.98;;;14.20;99.90;;;;;;6175472;23;20550;-89
2022/09/26 10:22:26;;;;;;;6.32;2.72;;;14.30;99.90;;;;;;6176662;23;20064;-88
2022/09/26 10:25:25;;;;;;;7.47;2.42;;;14.40;99.90;;;;;;6177106;22;20090;-92
2022/09/26 10:27:58;;;;;;;7.28;2.28;;;14.40;99.90;;;;;;6177281;23;20009;-89
2022/09/26 10:30:28;;;;;;;8.13;2.15;;;14.50;99.90;;;;;;6177121;23;20032;-91
2022/09/26 10:32:57;;;;;;;6.32;2.22;;;14.50;99.90;;;;;;6177444;22;20434;-91
2022/09/26 10:35:25;;;;;;;4.75;2.08;;;14.50;99.90;;;;;;6177933;22;20501;-88
2022/09/26 10:38:17;;;;;;;4.32;2.20;;;14.50;99.90;;;;;;6177638;22;20005;-88
2022/09/26 10:40:52;;;;;;;6.68;2.00;;;14.60;99.90;;;;;;6177984;23;20047;-91
2022/09/26 10:43:21;;;;;;;8.50;3.58;;;14.60;99.90;;;;;;6177333;22;20031;-88
2022/09/26 10:46:17;;;;;;;6.93;2.75;;;14.60;99.90;;;;;;6178114;23;20005;-90
2022/09/26 10:48:58;;;;;;;7.43;2.47;;;14.60;99.90;;;;;;6176903;23;20036;-92
2022/09/26 10:51:43;;;;;;;15.30;2.65;;;14.60;99.90;;;;;;6177826;22;20005;-91
2022/09/26 10:54:17;;;;;;;6.38;2.25;;;14.60;99.90;;;;;;6176664;22;20430;-83
2022/09/26 10:56:53;;;;;;;5.57;1.60;;;14.60;99.90;;;;;;6177773;22;20001;-88
2022/09/26 10:59:24;;;;;;;4.65;1.60;;;14.60;99.90;;;;;;6177651;22;20490;-85
2022/09/26 11:01:54;;;;;;;3.85;1.50;;;14.60;99.90;;;;;;6177875;22;20008;-81
2022/09/26 11:07:24;;;;;;;8.63;2.08;;;14.60;99.90;;;;;;6174745;23;20020;-90
2022/09/26 11:09:51;;;;;;;5.97;1.40;;;14.60;99.90;;;;;;6176365;23;20008;-87
2022/09/26 11:12:24;;;;;;;11.35;1.73;;;14.60;99.90;;;;;;6176278;23;20008;-88
2022/09/26 11:15:04;;;;;;;4.10;1.58;;;14.70;99.90;;;;;;6175207;23;20005;-91
2022/09/26 11:17:52;;;;;;;3.95;1.83;;;14.80;99.90;;;;;;6172570;23;20323;-88
2022/09/26 11:20:36;;;;;;;6.63;1.75;;;14.80;99.90;;;;;;6174236;23;20013;-83
2022/09/26 11:23:28;;;;;;;5.95;1.95;;;15.00;99.90;;;;;;6174644;22;20028;-91
2022/09/26 11:26:05;;;;;;;3.33;1.40;;;14.90;99.90;;;;;;6176633;23;20020;-89
2022/09/26 11:29:02;;;;;;;4.15;2.05;;;14.90;99.90;;;;;;6175179;22;20009;-88
2022/09/26 11:34:15;;;;;;;5.47;1.60;;;15.00;99.90;;;;;;6176328;22;20043;-87
2022/09/26 11:37:09;;;;;;;9.18;2.00;;;15.10;99.90;;;;;;6176902;23;20006;-87
2022/09/26 11:39:57;;;;;;;2.03;1.30;;;15.00;99.90;;;;;;6177120;23;20326;-87
2022/09/26 11:42:56;;;;;;;9.55;1.65;;;14.80;99.90;;;;;;6175871;22;20008;-85
2022/09/26 11:45:32;;;;;;;6.80;1.88;;;14.80;99.90;;;;;;6150637;22;20086;-81
2022/09/26 11:48:08;;;;;;;2.53;1.30;;;14.90;99.90;;;;;;6175895;23;20006;-86
2022/09/26 11:51:05;;;;;;;8.75;2.05;;;15.00;99.90;;;;;;6177680;23;20001;-89
2022/09/26 11:54:08;;;;;;;6.05;1.95;;;15.20;99.90;;;;;;6175484;22;20008;-84
2022/09/26 11:56:55;;;;;;;6.72;1.52;;;15.30;99.90;;;;;;6147882;22;20326;-86
2022/09/26 11:59:24;;;;;;;3.67;1.58;;;15.10;99.90;;;;;;6173548;23;20012;-84
2022/09/26 12:02:16;;;;;;;4.57;1.80;;;15.00;99.90;;;;;;6176757;22;20426;-86
2022/09/26 12:04:58;;;;;;;5.25;1.30;;;14.90;99.90;;;;;;6176674;23;20084;-86
2022/09/26 12:07:36;;;;;;;6.15;1.40;;;14.80;99.90;;;;;;6175489;23;20024;-83
2022/09/26 12:10:30;;;;;;;6.80;1.67;;;15.00;99.90;;;;;;6176802;22;20020;-90
2022/09/26 12:13:02;;;;;;;3.30;1.35;;;15.10;99.90;;;;;;6149317;23;20011;-89
2022/09/26 12:15:59;;;;;;;7.75;1.70;;;15.20;99.90;;;;;;6176652;22;20012;-86
2022/09/26 12:18:54;;;;;;;2.40;1.45;;;15.40;99.90;;;;;;6176184;22;20063;-84
2022/09/26 12:21:29;;;;;;;6.78;1.50;;;15.60;99.90;;;;;;6176783;23;20342;-83
2022/09/26 12:24:22;;;;;;;6.00;1.65;;;15.70;99.90;;;;;;6175543;22;20001;-83
2022/09/26 15:15:54;;;;;;;3.70;1.27;;;14.90;99.90;;;;;;6205393;22;20538;-88
2022/09/26 15:18:34;;;;;;;2.97;1.05;;;14.90;99.90;;;;;;6087007;23;20021;-90
2022/09/26 15:21:18;;;;;;;5.38;1.00;;;14.80;99.90;;;;;;6088035;23;20014;-88
2022/09/26 15:23:49;;;;;;;3.42;1.15;;;14.80;99.90;;;;;;6086943;23;20044;-89
2022/09/26 15:26:19;;;;;;;1.83;1.05;;;14.80;99.90;;;;;;6088933;23;20093;-90
2022/09/26 15:28:50;;;;;;;1.92;1.00;;;14.70;99.90;;;;;;6087393;23;20014;-88
2022/09/26 15:31:21;;;;;;;3.47;1.15;;;14.70;99.90;;;;;;6086048;23;20006;-89
2022/09/26 15:34:21;;;;;;;4.50;1.35;;;14.70;99.90;;;;;;6087053;23;20010;-88
2022/09/26 15:36:59;;;;;;;4.43;1.02;;;14.60;99.90;;;;;;6088016;23;20006;-88
2022/09/26 15:39:30;;;;;;;4.03;1.45;;;14.60;99.90;;;;;;6088539;23;20026;-91
2022/09/26 15:45:22;;;;;;;1.27;1.10;;;14.50;99.90;;;;;;6086707;23;20090;-90
2022/09/26 15:47:48;;;;;;;2.28;1.20;;;14.40;99.90;;;;;;6103391;23;20006;-83
2022/09/26 15:50:19;;;;;;;3.00;1.27;;;14.40;99.90;;;;;;6087342;23;20003;-91
2022/09/26 15:53:11;;;;;;;5.68;1.33;;;14.30;99.90;;;;;;6088860;23;19998;-92
2022/09/26 15:55:56;;;;;;;7.03;1.50;;;14.20;99.90;;;;;;6087613;23;20309;-88
2022/09/26 15:58:33;;;;;;;2.80;1.23;;;14.20;99.90;;;;;;6088437;23;20006;-88
2022/09/26 16:01:06;;;;;;;8.65;1.48;;;14.20;99.90;;;;;;6088742;23;20014;-90
2022/09/26 16:04:09;;;;;;;6.45;1.58;;;14.10;99.90;;;;;;6088056;23;20009;-89
2022/09/26 16:06:36;;;;;;;3.35;1.35;;;14.00;99.90;;;;;;6088780;23;20416;-89
2022/09/26 16:09:18;;;;;;;5.28;1.50;;;13.90;99.90;;;;;;6089710;23;20420;-88
2022/09/26 16:11:48;;;;;;;10.55;1.55;;;13.80;99.90;;;;;;6090581;23;20014;-88
2022/09/26 16:14:24;;;;;;;2.33;1.23;;;13.80;99.90;;;;;;6088404;23;20014;-90
2022/09/26 16:16:51;;;;;;;6.43;1.58;;;13.70;99.90;;;;;;6098883;22;20424;-89
2022/09/26 16:19:34;;;;;;;2.53;1.30;;;13.60;99.90;;;;;;6117655;23;20050;-87
2022/09/26 16:22:39;;;;;;;5.65;1.52;;;13.60;99.90;;;;;;6118879;23;20006;-88
2022/09/26 16:25:17;;;;;;;4.60;1.40;;;13.50;99.90;;;;;;6117506;23;20491;-85
2022/09/26 16:27:58;;;;;;;8.23;1.67;;;13.50;99.90;;;;;;6118544;23;20002;-90
2022/09/26 16:30:26;;;;;;;3.38;1.17;;;13.40;99.90;;;;;;6119242;23;20489;-87
2022/09/26 16:33:01;;;;;;;3.42;1.42;;;13.40;99.90;;;;;;6117105;23;20435;-84